sensor_id;sensor_type;location;lat;lon;timestamp;P1;durP1;ratioP1;P2;durP2;ratioP2
22780;SDS011;11557;50.884;4.322;2023-05-10T00:01:23;1.40;;;1.30;;
22780;SDS011;11557;50.884;4.322;2023-05-10T00:03:49;1.67;;;1.23;;
22780;SDS011;11557;50.884;4.322;2023-05-10T00:06:15;2.17;;;1.65;;
22780;SDS011;11557;50.884;4.322;2023-05-10T00:08:41;2.05;;;0.95;;
22780;SDS011;11557;50.884;4.322;2023-05-10T00:11:06;2.45;;;1.48;;
22780;SDS011;11557;50.884;4.322;2023-05-10T00:13:32;1.52;;;1.20;;
22780;SDS011;11557;50.884;4.322;2023-05-10T00:15:58;1.20;;;1.10;;
22780;SDS011;11557;50.884;4.322;2023-05-10T00:18:24;1.20;;;1.10;;
22780;SDS011;11557;50.884;4.322;2023-05-10T00:20:49;7.28;;;2.10;;
22780;SDS011;11557;50.884;4.322;2023-05-10T00:23:15;4.95;;;1.25;;
22780;SDS011;11557;50.884;4.322;2023-05-10T00:25:41;1.38;;;1.25;;
22780;SDS011;11557;50.884;4.322;2023-05-10T00:28:07;2.20;;;2.10;;
22780;SDS011;11557;50.884;4.322;2023-05-10T00:30:32;1.02;;;0.88;;
22780;SDS011;11557;50.884;4.322;2023-05-10T00:32:58;1.88;;;1.73;;
22780;SDS011;11557;50.884;4.322;2023-05-10T00:35:24;0.98;;;0.95;;
22780;SDS011;11557;50.884;4.322;2023-05-10T00:37:50;2.90;;;1.60;;
22780;SDS011;11557;50.884;4.322;2023-05-10T00:40:15;3.25;;;1.80;;
22780;SDS011;11557;50.884;4.322;2023-05-10T00:42:41;2.80;;;1.70;;
22780;SDS011;11557;50.884;4.322;2023-05-10T00:45:07;2.17;;;1.52;;
22780;SDS011;11557;50.884;4.322;2023-05-10T00:47:33;2.33;;;2.15;;
22780;SDS011;11557;50.884;4.322;2023-05-10T00:49:59;1.42;;;1.33;;
22780;SDS011;11557;50.884;4.322;2023-05-10T00:52:26;4.10;;;1.95;;
22780;SDS011;11557;50.884;4.322;2023-05-10T00:54:54;1.30;;;1.10;;
22780;SDS011;11557;50.884;4.322;2023-05-10T00:57:19;4.40;;;1.90;;
22780;SDS011;11557;50.884;4.322;2023-05-10T00:59:46;1.55;;;1.25;;
22780;SDS011;11557;50.884;4.322;2023-05-10T01:02:12;3.13;;;1.67;;
22780;SDS011;11557;50.884;4.322;2023-05-10T01:04:38;1.42;;;1.33;;
22780;SDS011;11557;50.884;4.322;2023-05-10T01:07:04;1.90;;;1.80;;
22780;SDS011;11557;50.884;4.322;2023-05-10T01:09:30;1.30;;;1.20;;
22780;SDS011;11557;50.884;4.322;2023-05-10T01:11:57;1.77;;;1.30;;
22780;SDS011;11557;50.884;4.322;2023-05-10T01:14:23;1.42;;;1.33;;
22780;SDS011;11557;50.884;4.322;2023-05-10T01:16:51;2.53;;;1.58;;
22780;SDS011;11557;50.884;4.322;2023-05-10T01:19:28;1.95;;;1.67;;
22780;SDS011;11557;50.884;4.322;2023-05-10T01:33:32;4.43;;;2.23;;
22780;SDS011;11557;50.884;4.322;2023-05-10T01:39:03;2.08;;;1.98;;
22780;SDS011;11557;50.884;4.322;2023-05-10T01:41:50;2.67;;;2.47;;
22780;SDS011;11557;50.884;4.322;2023-05-10T01:44:26;2.20;;;1.35;;
22780;SDS011;11557;50.884;4.322;2023-05-10T01:47:07;3.00;;;2.00;;
22780;SDS011;11557;50.884;4.322;2023-05-10T01:49:55;3.13;;;2.30;;
22780;SDS011;11557;50.884;4.322;2023-05-10T01:52:30;3.83;;;3.35;;
22780;SDS011;11557;50.884;4.322;2023-05-10T01:55:16;4.50;;;3.10;;
22780;SDS011;11557;50.884;4.322;2023-05-10T01:57:46;3.53;;;2.90;;
22780;SDS011;11557;50.884;4.322;2023-05-10T02:00:16;6.03;;;2.47;;
22780;SDS011;11557;50.884;4.322;2023-05-10T02:02:47;3.53;;;2.15;;
22780;SDS011;11557;50.884;4.322;2023-05-10T02:05:15;3.85;;;2.83;;
22780;SDS011;11557;50.884;4.322;2023-05-10T02:07:42;3.15;;;2.90;;
22780;SDS011;11557;50.884;4.322;2023-05-10T02:10:09;8.23;;;2.80;;
22780;SDS011;11557;50.884;4.322;2023-05-10T02:12:37;2.95;;;2.00;;
22780;SDS011;11557;50.884;4.322;2023-05-10T02:15:06;4.28;;;3.00;;
22780;SDS011;11557;50.884;4.322;2023-05-10T02:17:34;9.50;;;2.03;;
22780;SDS011;11557;50.884;4.322;2023-05-10T02:20:03;1.75;;;1.65;;
22780;SDS011;11557;50.884;4.322;2023-05-10T02:22:31;2.40;;;2.20;;
22780;SDS011;11557;50.884;4.322;2023-05-10T02:24:59;8.73;;;2.55;;
22780;SDS011;11557;50.884;4.322;2023-05-10T02:27:26;1.92;;;1.60;;
22780;SDS011;11557;50.884;4.322;2023-05-10T02:29:53;2.58;;;1.85;;
22780;SDS011;11557;50.884;4.322;2023-05-10T02:32:19;1.77;;;1.67;;
22780;SDS011;11557;50.884;4.322;2023-05-10T02:34:47;1.85;;;1.75;;
22780;SDS011;11557;50.884;4.322;2023-05-10T02:37:17;4.40;;;2.17;;
22780;SDS011;11557;50.884;4.322;2023-05-10T02:39:46;8.50;;;1.38;;
22780;SDS011;11557;50.884;4.322;2023-05-10T02:42:13;2.47;;;2.28;;
22780;SDS011;11557;50.884;4.322;2023-05-10T02:44:43;3.70;;;2.47;;
22780;SDS011;11557;50.884;4.322;2023-05-10T02:47:10;6.95;;;3.47;;
22780;SDS011;11557;50.884;4.322;2023-05-10T02:49:36;2.15;;;1.90;;
22780;SDS011;11557;50.884;4.322;2023-05-10T02:52:03;1.80;;;1.52;;
22780;SDS011;11557;50.884;4.322;2023-05-10T02:54:33;3.95;;;2.17;;
22780;SDS011;11557;50.884;4.322;2023-05-10T02:57:04;3.72;;;3.25;;
22780;SDS011;11557;50.884;4.322;2023-05-10T02:59:31;1.65;;;1.55;;
22780;SDS011;11557;50.884;4.322;2023-05-10T03:01:58;1.60;;;1.50;;
22780;SDS011;11557;50.884;4.322;2023-05-10T03:04:25;4.10;;;1.55;;
22780;SDS011;11557;50.884;4.322;2023-05-10T03:06:51;2.45;;;1.90;;
22780;SDS011;11557;50.884;4.322;2023-05-10T03:09:17;3.42;;;3.05;;
22780;SDS011;11557;50.884;4.322;2023-05-10T03:15:42;3.35;;;1.83;;
22780;SDS011;11557;50.884;4.322;2023-05-10T03:20:21;4.18;;;2.45;;
22780;SDS011;11557;50.884;4.322;2023-05-10T03:22:55;10.85;;;4.00;;
22780;SDS011;11557;50.884;4.322;2023-05-10T03:25:46;2.13;;;1.90;;
22780;SDS011;11557;50.884;4.322;2023-05-10T03:28:14;5.35;;;3.50;;
22780;SDS011;11557;50.884;4.322;2023-05-10T03:30:41;1.88;;;1.70;;
22780;SDS011;11557;50.884;4.322;2023-05-10T03:33:07;2.15;;;2.03;;
22780;SDS011;11557;50.884;4.322;2023-05-10T03:35:33;4.50;;;3.28;;
22780;SDS011;11557;50.884;4.322;2023-05-10T03:37:59;5.00;;;3.20;;
22780;SDS011;11557;50.884;4.322;2023-05-10T03:40:26;2.30;;;2.03;;
22780;SDS011;11557;50.884;4.322;2023-05-10T03:42:54;3.08;;;2.72;;
22780;SDS011;11557;50.884;4.322;2023-05-10T03:45:20;3.90;;;2.95;;
22780;SDS011;11557;50.884;4.322;2023-05-10T03:47:46;12.80;;;3.85;;
22780;SDS011;11557;50.884;4.322;2023-05-10T03:50:11;11.80;;;2.95;;
22780;SDS011;11557;50.884;4.322;2023-05-10T03:52:37;3.47;;;3.15;;
22780;SDS011;11557;50.884;4.322;2023-05-10T03:55:04;5.57;;;2.80;;
22780;SDS011;11557;50.884;4.322;2023-05-10T03:57:31;4.50;;;2.63;;
22780;SDS011;11557;50.884;4.322;2023-05-10T03:59:57;3.28;;;2.97;;
22780;SDS011;11557;50.884;4.322;2023-05-10T04:02:23;4.85;;;2.67;;
22780;SDS011;11557;50.884;4.322;2023-05-10T04:04:48;7.18;;;3.28;;
22780;SDS011;11557;50.884;4.322;2023-05-10T04:07:14;1.77;;;1.67;;
22780;SDS011;11557;50.884;4.322;2023-05-10T04:09:40;8.45;;;2.97;;
22780;SDS011;11557;50.884;4.322;2023-05-10T04:12:05;5.30;;;2.80;;
22780;SDS011;11557;50.884;4.322;2023-05-10T04:14:31;2.35;;;2.17;;
22780;SDS011;11557;50.884;4.322;2023-05-10T04:16:57;9.05;;;3.55;;
22780;SDS011;11557;50.884;4.322;2023-05-10T04:19:23;4.20;;;3.80;;
22780;SDS011;11557;50.884;4.322;2023-05-10T04:21:48;5.15;;;2.80;;
22780;SDS011;11557;50.884;4.322;2023-05-10T04:24:14;4.35;;;3.03;;
22780;SDS011;11557;50.884;4.322;2023-05-10T04:26:40;4.57;;;2.67;;
22780;SDS011;11557;50.884;4.322;2023-05-10T04:29:06;4.07;;;3.65;;
22780;SDS011;11557;50.884;4.322;2023-05-10T04:31:31;4.50;;;4.07;;
22780;SDS011;11557;50.884;4.322;2023-05-10T04:33:57;12.05;;;3.85;;
22780;SDS011;11557;50.884;4.322;2023-05-10T04:36:23;4.50;;;3.90;;
22780;SDS011;11557;50.884;4.322;2023-05-10T04:38:48;4.85;;;4.18;;
22780;SDS011;11557;50.884;4.322;2023-05-10T04:41:14;6.43;;;4.13;;
22780;SDS011;11557;50.884;4.322;2023-05-10T04:43:40;4.97;;;3.33;;
22780;SDS011;11557;50.884;4.322;2023-05-10T04:46:05;2.67;;;2.47;;
22780;SDS011;11557;50.884;4.322;2023-05-10T04:48:34;4.43;;;3.63;;
22780;SDS011;11557;50.884;4.322;2023-05-10T04:51:00;4.07;;;3.67;;
22780;SDS011;11557;50.884;4.322;2023-05-10T04:53:26;5.07;;;3.58;;
22780;SDS011;11557;50.884;4.322;2023-05-10T04:55:51;4.15;;;3.80;;
22780;SDS011;11557;50.884;4.322;2023-05-10T04:58:17;4.57;;;4.07;;
22780;SDS011;11557;50.884;4.322;2023-05-10T05:00:43;5.15;;;4.57;;
22780;SDS011;11557;50.884;4.322;2023-05-10T05:03:09;3.55;;;3.22;;
22780;SDS011;11557;50.884;4.322;2023-05-10T05:05:34;6.10;;;3.67;;
22780;SDS011;11557;50.884;4.322;2023-05-10T05:08:00;4.50;;;3.80;;
22780;SDS011;11557;50.884;4.322;2023-05-10T05:10:26;8.68;;;4.10;;
22780;SDS011;11557;50.884;4.322;2023-05-10T05:12:51;13.75;;;3.67;;
22780;SDS011;11557;50.884;4.322;2023-05-10T05:15:17;7.63;;;4.40;;
22780;SDS011;11557;50.884;4.322;2023-05-10T05:17:43;3.15;;;2.95;;
22780;SDS011;11557;50.884;4.322;2023-05-10T05:20:09;5.72;;;4.53;;
22780;SDS011;11557;50.884;4.322;2023-05-10T05:22:38;5.68;;;5.07;;
22780;SDS011;11557;50.884;4.322;2023-05-10T05:25:04;6.88;;;3.63;;
22780;SDS011;11557;50.884;4.322;2023-05-10T05:27:30;5.88;;;3.60;;
22780;SDS011;11557;50.884;4.322;2023-05-10T05:29:57;4.43;;;3.47;;
22780;SDS011;11557;50.884;4.322;2023-05-10T05:32:23;6.00;;;4.10;;
22780;SDS011;11557;50.884;4.322;2023-05-10T05:34:49;4.85;;;4.20;;
22780;SDS011;11557;50.884;4.322;2023-05-10T05:37:15;6.18;;;4.40;;
22780;SDS011;11557;50.884;4.322;2023-05-10T05:39:42;3.50;;;2.95;;
22780;SDS011;11557;50.884;4.322;2023-05-10T05:42:09;7.35;;;4.10;;
22780;SDS011;11557;50.884;4.322;2023-05-10T05:44:36;4.50;;;3.17;;
22780;SDS011;11557;50.884;4.322;2023-05-10T05:47:02;7.15;;;5.05;;
22780;SDS011;11557;50.884;4.322;2023-05-10T05:49:28;5.65;;;2.90;;
22780;SDS011;11557;50.884;4.322;2023-05-10T05:51:54;3.58;;;2.65;;
22780;SDS011;11557;50.884;4.322;2023-05-10T05:54:23;4.55;;;3.10;;
22780;SDS011;11557;50.884;4.322;2023-05-10T05:56:48;3.97;;;2.50;;
22780;SDS011;11557;50.884;4.322;2023-05-10T05:59:14;2.63;;;2.42;;
22780;SDS011;11557;50.884;4.322;2023-05-10T06:01:40;2.38;;;2.17;;
22780;SDS011;11557;50.884;4.322;2023-05-10T06:04:05;4.10;;;2.40;;
22780;SDS011;11557;50.884;4.322;2023-05-10T06:06:31;16.23;;;3.05;;
22780;SDS011;11557;50.884;4.322;2023-05-10T06:08:57;3.97;;;3.53;;
22780;SDS011;11557;50.884;4.322;2023-05-10T06:11:23;5.10;;;3.42;;
22780;SDS011;11557;50.884;4.322;2023-05-10T06:13:48;7.75;;;3.53;;
22780;SDS011;11557;50.884;4.322;2023-05-10T06:16:14;3.60;;;2.45;;
22780;SDS011;11557;50.884;4.322;2023-05-10T06:18:40;2.80;;;2.55;;
22780;SDS011;11557;50.884;4.322;2023-05-10T06:21:06;2.33;;;2.20;;
22780;SDS011;11557;50.884;4.322;2023-05-10T06:23:32;4.90;;;3.58;;
22780;SDS011;11557;50.884;4.322;2023-05-10T06:25:57;3.17;;;2.72;;
22780;SDS011;11557;50.884;4.322;2023-05-10T06:28:23;2.65;;;2.45;;
22780;SDS011;11557;50.884;4.322;2023-05-10T06:30:49;3.13;;;2.83;;
22780;SDS011;11557;50.884;4.322;2023-05-10T06:33:14;14.50;;;3.67;;
22780;SDS011;11557;50.884;4.322;2023-05-10T06:35:41;5.30;;;3.80;;
22780;SDS011;11557;50.884;4.322;2023-05-10T06:38:07;5.10;;;3.55;;
22780;SDS011;11557;50.884;4.322;2023-05-10T06:40:33;6.57;;;4.03;;
22780;SDS011;11557;50.884;4.322;2023-05-10T06:42:58;7.22;;;3.83;;
22780;SDS011;11557;50.884;4.322;2023-05-10T06:45:24;6.80;;;3.53;;
22780;SDS011;11557;50.884;4.322;2023-05-10T06:47:50;4.53;;;4.13;;
22780;SDS011;11557;50.884;4.322;2023-05-10T06:50:15;4.88;;;4.25;;
22780;SDS011;11557;50.884;4.322;2023-05-10T06:52:41;4.65;;;4.18;;
22780;SDS011;11557;50.884;4.322;2023-05-10T06:55:07;3.72;;;3.13;;
22780;SDS011;11557;50.884;4.322;2023-05-10T06:57:33;15.52;;;4.30;;
22780;SDS011;11557;50.884;4.322;2023-05-10T06:59:59;8.18;;;4.32;;
22780;SDS011;11557;50.884;4.322;2023-05-10T07:02:26;5.07;;;3.70;;
22780;SDS011;11557;50.884;4.322;2023-05-10T07:04:52;6.82;;;5.10;;
22780;SDS011;11557;50.884;4.322;2023-05-10T07:07:17;4.43;;;3.85;;
22780;SDS011;11557;50.884;4.322;2023-05-10T07:09:43;9.55;;;3.83;;
22780;SDS011;11557;50.884;4.322;2023-05-10T07:12:09;3.70;;;3.22;;
22780;SDS011;11557;50.884;4.322;2023-05-10T07:14:35;4.22;;;3.72;;
22780;SDS011;11557;50.884;4.322;2023-05-10T07:17:01;2.40;;;2.20;;
22780;SDS011;11557;50.884;4.322;2023-05-10T07:19:26;5.40;;;2.65;;
22780;SDS011;11557;50.884;4.322;2023-05-10T07:21:54;5.57;;;3.90;;
22780;SDS011;11557;50.884;4.322;2023-05-10T07:24:20;8.00;;;3.88;;
22780;SDS011;11557;50.884;4.322;2023-05-10T07:26:45;4.65;;;3.35;;
22780;SDS011;11557;50.884;4.322;2023-05-10T07:29:11;3.78;;;3.42;;
22780;SDS011;11557;50.884;4.322;2023-05-10T07:31:37;3.20;;;2.90;;
22780;SDS011;11557;50.884;4.322;2023-05-10T07:34:02;3.90;;;2.88;;
22780;SDS011;11557;50.884;4.322;2023-05-10T07:36:28;5.43;;;4.22;;
22780;SDS011;11557;50.884;4.322;2023-05-10T07:38:54;2.78;;;2.58;;
22780;SDS011;11557;50.884;4.322;2023-05-10T07:41:19;5.47;;;2.42;;
22780;SDS011;11557;50.884;4.322;2023-05-10T07:43:46;11.13;;;2.30;;
22780;SDS011;11557;50.884;4.322;2023-05-10T07:46:11;4.18;;;2.70;;
22780;SDS011;11557;50.884;4.322;2023-05-10T07:48:37;3.97;;;2.13;;
22780;SDS011;11557;50.884;4.322;2023-05-10T07:51:03;2.28;;;2.08;;
22780;SDS011;11557;50.884;4.322;2023-05-10T07:53:28;1.42;;;1.33;;
22780;SDS011;11557;50.884;4.322;2023-05-10T07:55:55;2.92;;;2.60;;
22780;SDS011;11557;50.884;4.322;2023-05-10T07:58:23;3.80;;;2.45;;
22780;SDS011;11557;50.884;4.322;2023-05-10T08:00:49;1.75;;;1.63;;
22780;SDS011;11557;50.884;4.322;2023-05-10T08:03:15;2.42;;;2.08;;
22780;SDS011;11557;50.884;4.322;2023-05-10T08:05:40;3.15;;;2.63;;
22780;SDS011;11557;50.884;4.322;2023-05-10T08:08:06;16.45;;;1.75;;
22780;SDS011;11557;50.884;4.322;2023-05-10T08:10:32;2.95;;;2.25;;
22780;SDS011;11557;50.884;4.322;2023-05-10T08:12:58;3.78;;;2.35;;
22780;SDS011;11557;50.884;4.322;2023-05-10T08:15:24;2.13;;;1.73;;
22780;SDS011;11557;50.884;4.322;2023-05-10T08:17:53;1.48;;;1.38;;
22780;SDS011;11557;50.884;4.322;2023-05-10T08:20:19;2.80;;;1.77;;
22780;SDS011;11557;50.884;4.322;2023-05-10T08:22:45;3.42;;;1.88;;
22780;SDS011;11557;50.884;4.322;2023-05-10T08:25:12;2.90;;;1.80;;
22780;SDS011;11557;50.884;4.322;2023-05-10T08:27:38;2.38;;;2.17;;
22780;SDS011;11557;50.884;4.322;2023-05-10T08:30:03;4.10;;;2.33;;
22780;SDS011;11557;50.884;4.322;2023-05-10T08:32:30;2.15;;;1.73;;
22780;SDS011;11557;50.884;4.322;2023-05-10T08:34:55;3.75;;;2.08;;
22780;SDS011;11557;50.884;4.322;2023-05-10T08:37:22;1.95;;;1.63;;
22780;SDS011;11557;50.884;4.322;2023-05-10T08:39:48;2.63;;;1.65;;
22780;SDS011;11557;50.884;4.322;2023-05-10T08:42:15;1.30;;;1.20;;
22780;SDS011;11557;50.884;4.322;2023-05-10T08:44:47;0.52;;;0.52;;
22780;SDS011;11557;50.884;4.322;2023-05-10T08:47:15;6.25;;;2.28;;
22780;SDS011;11557;50.884;4.322;2023-05-10T08:49:43;1.30;;;1.20;;
22780;SDS011;11557;50.884;4.322;2023-05-10T08:52:13;1.23;;;0.98;;
22780;SDS011;11557;50.884;4.322;2023-05-10T08:54:40;1.58;;;1.48;;
22780;SDS011;11557;50.884;4.322;2023-05-10T08:57:06;2.25;;;1.30;;
22780;SDS011;11557;50.884;4.322;2023-05-10T08:59:32;2.03;;;1.38;;
22780;SDS011;11557;50.884;4.322;2023-05-10T09:01:58;1.55;;;1.35;;
22780;SDS011;11557;50.884;4.322;2023-05-10T09:04:25;2.60;;;2.17;;
22780;SDS011;11557;50.884;4.322;2023-05-10T09:06:51;1.15;;;1.08;;
22780;SDS011;11557;50.884;4.322;2023-05-10T09:09:17;1.95;;;1.60;;
22780;SDS011;11557;50.884;4.322;2023-05-10T09:11:44;2.03;;;1.30;;
22780;SDS011;11557;50.884;4.322;2023-05-10T09:14:10;1.23;;;1.15;;
22780;SDS011;11557;50.884;4.322;2023-05-10T09:16:38;5.15;;;1.75;;
22780;SDS011;11557;50.884;4.322;2023-05-10T09:19:04;3.65;;;2.20;;
22780;SDS011;11557;50.884;4.322;2023-05-10T09:21:31;1.67;;;1.48;;
22780;SDS011;11557;50.884;4.322;2023-05-10T09:24:02;3.33;;;2.05;;
22780;SDS011;11557;50.884;4.322;2023-05-10T09:26:29;6.35;;;2.03;;
22780;SDS011;11557;50.884;4.322;2023-05-10T09:28:57;4.57;;;2.55;;
22780;SDS011;11557;50.884;4.322;2023-05-10T09:31:24;2.40;;;1.52;;
22780;SDS011;11557;50.884;4.322;2023-05-10T09:34:07;3.63;;;2.00;;
22780;SDS011;11557;50.884;4.322;2023-05-10T09:36:33;1.67;;;1.27;;
22780;SDS011;11557;50.884;4.322;2023-05-10T09:38:58;1.17;;;1.15;;
22780;SDS011;11557;50.884;4.322;2023-05-10T09:41:25;0.80;;;0.80;;
22780;SDS011;11557;50.884;4.322;2023-05-10T09:43:55;1.98;;;1.30;;
22780;SDS011;11557;50.884;4.322;2023-05-10T09:46:21;4.07;;;1.88;;
22780;SDS011;11557;50.884;4.322;2023-05-10T09:48:47;1.75;;;1.65;;
22780;SDS011;11557;50.884;4.322;2023-05-10T09:51:23;1.95;;;1.70;;
22780;SDS011;11557;50.884;4.322;2023-05-10T09:56:36;0.93;;;0.88;;
22780;SDS011;11557;50.884;4.322;2023-05-10T09:59:04;2.33;;;1.23;;
22780;SDS011;11557;50.884;4.322;2023-05-10T10:01:31;3.58;;;2.03;;
22780;SDS011;11557;50.884;4.322;2023-05-10T10:03:57;3.55;;;1.83;;
22780;SDS011;11557;50.884;4.322;2023-05-10T10:06:23;2.85;;;1.90;;
22780;SDS011;11557;50.884;4.322;2023-05-10T10:08:50;1.80;;;1.70;;
22780;SDS011;11557;50.884;4.322;2023-05-10T10:11:16;2.50;;;1.92;;
22780;SDS011;11557;50.884;4.322;2023-05-10T10:13:42;2.10;;;1.70;;
22780;SDS011;11557;50.884;4.322;2023-05-10T10:16:08;1.83;;;1.55;;
22780;SDS011;11557;50.884;4.322;2023-05-10T10:18:35;2.25;;;1.67;;
22780;SDS011;11557;50.884;4.322;2023-05-10T10:21:04;4.22;;;1.58;;
22780;SDS011;11557;50.884;4.322;2023-05-10T10:23:31;4.72;;;1.25;;
22780;SDS011;11557;50.884;4.322;2023-05-10T10:25:57;4.95;;;2.08;;
22780;SDS011;11557;50.884;4.322;2023-05-10T10:28:26;1.75;;;1.35;;
22780;SDS011;11557;50.884;4.322;2023-05-10T10:34:03;0.90;;;0.90;;
22780;SDS011;11557;50.884;4.322;2023-05-10T10:36:46;1.88;;;1.40;;
22780;SDS011;11557;50.884;4.322;2023-05-10T10:39:14;1.13;;;0.98;;
22780;SDS011;11557;50.884;4.322;2023-05-10T10:41:54;1.35;;;1.25;;
22780;SDS011;11557;50.884;4.322;2023-05-10T10:49:27;1.02;;;0.93;;
22780;SDS011;11557;50.884;4.322;2023-05-10T10:57:44;11.25;;;1.70;;
22780;SDS011;11557;50.884;4.322;2023-05-10T11:02:58;1.52;;;0.70;;
22780;SDS011;11557;50.884;4.322;2023-05-10T11:08:07;0.88;;;0.88;;
22780;SDS011;11557;50.884;4.322;2023-05-10T11:10:52;1.88;;;0.77;;
22780;SDS011;11557;50.884;4.322;2023-05-10T11:16:09;1.45;;;0.90;;
22780;SDS011;11557;50.884;4.322;2023-05-10T11:18:37;3.00;;;1.25;;
22780;SDS011;11557;50.884;4.322;2023-05-10T11:21:03;1.13;;;0.90;;
22780;SDS011;11557;50.884;4.322;2023-05-10T11:23:47;0.90;;;0.90;;
22780;SDS011;11557;50.884;4.322;2023-05-10T11:26:13;0.57;;;0.57;;
22780;SDS011;11557;50.884;4.322;2023-05-10T11:28:46;1.80;;;1.70;;
22780;SDS011;11557;50.884;4.322;2023-05-10T11:31:18;1.50;;;1.40;;
22780;SDS011;11557;50.884;4.322;2023-05-10T11:33:46;1.60;;;0.95;;
22780;SDS011;11557;50.884;4.322;2023-05-10T11:36:20;6.00;;;0.85;;
22780;SDS011;11557;50.884;4.322;2023-05-10T11:38:47;2.35;;;0.85;;
22780;SDS011;11557;50.884;4.322;2023-05-10T11:41:14;2.05;;;1.50;;
22780;SDS011;11557;50.884;4.322;2023-05-10T11:43:41;1.52;;;1.38;;
22780;SDS011;11557;50.884;4.322;2023-05-10T11:46:09;2.40;;;1.73;;
22780;SDS011;11557;50.884;4.322;2023-05-10T11:48:39;0.93;;;0.85;;
22780;SDS011;11557;50.884;4.322;2023-05-10T11:51:09;0.68;;;0.68;;
22780;SDS011;11557;50.884;4.322;2023-05-10T11:53:35;2.03;;;1.55;;
22780;SDS011;11557;50.884;4.322;2023-05-10T11:56:05;1.27;;;0.90;;
22780;SDS011;11557;50.884;4.322;2023-05-10T11:58:32;1.73;;;1.60;;
22780;SDS011;11557;50.884;4.322;2023-05-10T12:00:59;1.35;;;0.95;;
22780;SDS011;11557;50.884;4.322;2023-05-10T12:03:25;2.05;;;1.42;;
22780;SDS011;11557;50.884;4.322;2023-05-10T12:05:54;1.80;;;0.95;;
22780;SDS011;11557;50.884;4.322;2023-05-10T12:08:23;1.00;;;1.00;;
22780;SDS011;11557;50.884;4.322;2023-05-10T12:10:50;1.92;;;1.63;;
22780;SDS011;11557;50.884;4.322;2023-05-10T12:13:16;1.60;;;1.50;;
22780;SDS011;11557;50.884;4.322;2023-05-10T12:15:43;1.13;;;1.02;;
22780;SDS011;11557;50.884;4.322;2023-05-10T12:18:09;1.05;;;0.95;;
22780;SDS011;11557;50.884;4.322;2023-05-10T12:20:40;1.90;;;1.75;;
22780;SDS011;11557;50.884;4.322;2023-05-10T12:23:07;1.63;;;1.52;;
22780;SDS011;11557;50.884;4.322;2023-05-10T12:25:34;2.97;;;1.15;;
22780;SDS011;11557;50.884;4.322;2023-05-10T12:28:04;2.03;;;1.92;;
22780;SDS011;11557;50.884;4.322;2023-05-10T12:30:33;1.48;;;1.38;;
22780;SDS011;11557;50.884;4.322;2023-05-10T12:33:01;1.88;;;1.63;;
22780;SDS011;11557;50.884;4.322;2023-05-10T12:35:31;4.50;;;1.83;;
22780;SDS011;11557;50.884;4.322;2023-05-10T12:37:57;2.42;;;1.33;;
22780;SDS011;11557;50.884;4.322;2023-05-10T12:40:23;1.27;;;1.15;;
22780;SDS011;11557;50.884;4.322;2023-05-10T12:42:49;1.73;;;1.35;;
22780;SDS011;11557;50.884;4.322;2023-05-10T12:45:16;2.15;;;0.68;;
22780;SDS011;11557;50.884;4.322;2023-05-10T12:47:42;1.30;;;1.20;;
22780;SDS011;11557;50.884;4.322;2023-05-10T12:50:08;1.35;;;1.08;;
22780;SDS011;11557;50.884;4.322;2023-05-10T12:52:35;2.30;;;1.60;;
22780;SDS011;11557;50.884;4.322;2023-05-10T12:55:02;1.30;;;1.20;;
22780;SDS011;11557;50.884;4.322;2023-05-10T12:57:28;1.05;;;1.05;;
22780;SDS011;11557;50.884;4.322;2023-05-10T12:59:54;1.33;;;1.23;;
22780;SDS011;11557;50.884;4.322;2023-05-10T13:02:20;1.55;;;1.27;;
22780;SDS011;11557;50.884;4.322;2023-05-10T13:04:47;1.42;;;1.33;;
22780;SDS011;11557;50.884;4.322;2023-05-10T13:07:13;1.05;;;1.05;;
22780;SDS011;11557;50.884;4.322;2023-05-10T13:09:39;0.90;;;0.68;;
22780;SDS011;11557;50.884;4.322;2023-05-10T13:12:05;1.30;;;1.20;;
22780;SDS011;11557;50.884;4.322;2023-05-10T13:14:31;1.55;;;1.45;;
22780;SDS011;11557;50.884;4.322;2023-05-10T13:16:56;1.42;;;1.00;;
22780;SDS011;11557;50.884;4.322;2023-05-10T13:19:22;2.38;;;1.13;;
22780;SDS011;11557;50.884;4.322;2023-05-10T13:21:48;2.17;;;1.75;;
22780;SDS011;11557;50.884;4.322;2023-05-10T13:24:13;1.15;;;1.00;;
22780;SDS011;11557;50.884;4.322;2023-05-10T13:26:39;2.53;;;1.42;;
22780;SDS011;11557;50.884;4.322;2023-05-10T13:29:05;0.88;;;0.88;;
22780;SDS011;11557;50.884;4.322;2023-05-10T13:31:31;1.48;;;1.38;;
22780;SDS011;11557;50.884;4.322;2023-05-10T13:33:57;1.77;;;1.65;;
22780;SDS011;11557;50.884;4.322;2023-05-10T13:36:23;1.95;;;1.27;;
22780;SDS011;11557;50.884;4.322;2023-05-10T13:38:48;2.55;;;1.60;;
22780;SDS011;11557;50.884;4.322;2023-05-10T13:41:14;2.03;;;1.58;;
22780;SDS011;11557;50.884;4.322;2023-05-10T13:43:40;5.35;;;2.03;;
22780;SDS011;11557;50.884;4.322;2023-05-10T13:46:05;1.23;;;1.13;;
22780;SDS011;11557;50.884;4.322;2023-05-10T13:48:31;3.63;;;1.42;;
22780;SDS011;11557;50.884;4.322;2023-05-10T13:50:56;1.58;;;1.48;;
22780;SDS011;11557;50.884;4.322;2023-05-10T13:53:22;2.90;;;2.45;;
22780;SDS011;11557;50.884;4.322;2023-05-10T13:55:48;1.65;;;1.55;;
22780;SDS011;11557;50.884;4.322;2023-05-10T13:58:14;1.10;;;1.00;;
22780;SDS011;11557;50.884;4.322;2023-05-10T14:00:39;1.45;;;1.35;;
22780;SDS011;11557;50.884;4.322;2023-05-10T14:03:05;1.27;;;1.17;;
22780;SDS011;11557;50.884;4.322;2023-05-10T14:05:31;1.25;;;1.15;;
22780;SDS011;11557;50.884;4.322;2023-05-10T14:07:57;2.40;;;1.60;;
22780;SDS011;11557;50.884;4.322;2023-05-10T14:10:23;1.95;;;1.48;;
22780;SDS011;11557;50.884;4.322;2023-05-10T14:12:49;2.10;;;1.42;;
22780;SDS011;11557;50.884;4.322;2023-05-10T14:15:15;2.10;;;1.98;;
22780;SDS011;11557;50.884;4.322;2023-05-10T14:17:41;2.67;;;2.38;;
22780;SDS011;11557;50.884;4.322;2023-05-10T14:20:07;1.67;;;1.45;;
22780;SDS011;11557;50.884;4.322;2023-05-10T14:22:33;9.30;;;2.78;;
22780;SDS011;11557;50.884;4.322;2023-05-10T14:24:59;1.48;;;1.38;;
22780;SDS011;11557;50.884;4.322;2023-05-10T14:27:25;2.90;;;2.00;;
22780;SDS011;11557;50.884;4.322;2023-05-10T14:29:51;2.78;;;1.25;;
22780;SDS011;11557;50.884;4.322;2023-05-10T14:32:18;1.70;;;1.60;;
22780;SDS011;11557;50.884;4.322;2023-05-10T14:34:43;4.07;;;1.95;;
22780;SDS011;11557;50.884;4.322;2023-05-10T14:37:10;2.00;;;1.90;;
22780;SDS011;11557;50.884;4.322;2023-05-10T14:39:36;1.75;;;1.27;;
22780;SDS011;11557;50.884;4.322;2023-05-10T14:42:02;3.85;;;1.48;;
22780;SDS011;11557;50.884;4.322;2023-05-10T14:44:28;1.80;;;1.70;;
22780;SDS011;11557;50.884;4.322;2023-05-10T14:46:54;1.08;;;1.05;;
22780;SDS011;11557;50.884;4.322;2023-05-10T14:49:20;1.10;;;0.90;;
22780;SDS011;11557;50.884;4.322;2023-05-10T14:51:47;4.90;;;2.42;;
22780;SDS011;11557;50.884;4.322;2023-05-10T14:54:13;1.92;;;1.52;;
22780;SDS011;11557;50.884;4.322;2023-05-10T14:56:39;2.42;;;1.60;;
22780;SDS011;11557;50.884;4.322;2023-05-10T14:59:06;1.40;;;1.30;;
22780;SDS011;11557;50.884;4.322;2023-05-10T15:01:32;6.47;;;1.23;;
22780;SDS011;11557;50.884;4.322;2023-05-10T15:03:59;2.60;;;1.48;;
22780;SDS011;11557;50.884;4.322;2023-05-10T15:06:34;7.50;;;1.95;;
22780;SDS011;11557;50.884;4.322;2023-05-10T15:09:00;0.95;;;0.93;;
22780;SDS011;11557;50.884;4.322;2023-05-10T15:11:28;0.57;;;0.55;;
22780;SDS011;11557;50.884;4.322;2023-05-10T15:13:54;2.33;;;1.02;;
22780;SDS011;11557;50.884;4.322;2023-05-10T15:16:20;0.63;;;0.63;;
22780;SDS011;11557;50.884;4.322;2023-05-10T15:18:46;1.73;;;1.15;;
22780;SDS011;11557;50.884;4.322;2023-05-10T15:21:12;2.35;;;0.77;;
22780;SDS011;11557;50.884;4.322;2023-05-10T15:23:37;1.23;;;0.88;;
22780;SDS011;11557;50.884;4.322;2023-05-10T15:26:03;0.65;;;0.65;;
22780;SDS011;11557;50.884;4.322;2023-05-10T15:28:29;0.50;;;0.50;;
22780;SDS011;11557;50.884;4.322;2023-05-10T15:30:55;3.38;;;1.30;;
22780;SDS011;11557;50.884;4.322;2023-05-10T15:33:21;1.30;;;1.15;;